createdAt,value
2017-09-17T00:01:09.156Z,82.91
2017-09-17T00:03:38.232Z,82.93
2017-09-17T00:06:07.277Z,82.76
2017-09-17T00:08:37.125Z,83.42
2017-09-17T00:11:06.174Z,83.56
2017-09-17T00:13:35.231Z,83.86
2017-09-17T00:16:04.296Z,84.13
2017-09-17T00:18:33.366Z,84.41
2017-09-17T00:21:02.429Z,84.67
2017-09-17T00:23:31.485Z,84.73
2017-09-17T00:26:01.373Z,84.77
2017-09-17T00:28:31.196Z,84.65
2017-09-17T00:31:01.008Z,84.15
2017-09-17T00:33:30.852Z,84.05
2017-09-17T00:35:59.914Z,84.27
2017-09-17T00:38:30.025Z,84.11
2017-09-17T00:41:01.592Z,84.72
2017-09-17T00:43:32.112Z,84.51
2017-09-17T00:46:01.496Z,84.37
2017-09-17T00:48:30.605Z,84.61
2017-09-17T00:51:00.440Z,84.77
2017-09-17T00:53:29.479Z,84.93
2017-09-17T00:55:59.314Z,84.87
2017-09-17T00:58:28.423Z,84.87
2017-09-17T01:00:57.499Z,84.91
2017-09-17T01:03:27.364Z,84.96
2017-09-17T01:05:56.494Z,85.45
2017-09-17T01:08:25.540Z,85.75
2017-09-17T01:10:55.355Z,85.80
2017-09-17T01:13:25.239Z,85.92
2017-09-17T01:15:54.268Z,85.79
2017-09-17T01:18:23.319Z,85.02
2017-09-17T01:20:52.367Z,84.60
2017-09-17T01:23:21.431Z,84.89
2017-09-17T01:25:51.243Z,85.45
2017-09-17T01:28:21.059Z,85.31
2017-09-17T01:30:50.952Z,85.01
2017-09-17T01:33:19.984Z,84.76
2017-09-17T01:35:49.061Z,85.02
2017-09-17T01:38:19.056Z,85.17
2017-09-17T01:40:48.126Z,84.79
2017-09-17T01:43:17.223Z,84.66
2017-09-17T01:45:46.277Z,84.82
2017-09-17T01:48:16.108Z,84.54
2017-09-17T01:50:45.471Z,84.33
2017-09-17T01:53:14.492Z,84.09
2017-09-17T01:55:43.567Z,84.21
2017-09-17T01:58:12.583Z,84.15
2017-09-17T02:00:41.656Z,83.99
2017-09-17T02:03:10.715Z,83.88
2017-09-17T02:05:39.746Z,83.84
2017-09-17T02:08:09.805Z,84.06
2017-09-17T02:10:38.855Z,84.20
2017-09-17T02:13:08.777Z,84.13
2017-09-17T02:15:38.602Z,84.18
2017-09-17T02:18:08.454Z,84.15
2017-09-17T02:20:37.497Z,84.14
2017-09-17T02:23:07.338Z,83.94
2017-09-17T02:25:36.384Z,83.92
2017-09-17T02:28:05.438Z,83.87
2017-09-17T02:30:34.490Z,83.92
2017-09-17T02:33:03.532Z,84.01
2017-09-17T02:35:32.573Z,83.95
2017-09-17T02:38:01.645Z,83.79
2017-09-17T02:40:30.747Z,83.71
2017-09-17T02:42:59.804Z,83.51
2017-09-17T02:45:28.851Z,83.60
2017-09-17T02:47:57.924Z,83.68
2017-09-17T02:50:26.996Z,83.22
2017-09-17T02:52:56.034Z,83.07
2017-09-17T02:55:25.069Z,83.19
2017-09-17T02:57:54.135Z,83.36
2017-09-17T03:00:23.194Z,82.95
2017-09-17T03:02:52.225Z,83.20
2017-09-17T03:05:22.038Z,83.35
2017-09-17T03:07:51.103Z,83.36
2017-09-17T03:10:20.131Z,83.18
2017-09-17T03:12:49.935Z,82.92
2017-09-17T03:15:19.769Z,83.14
2017-09-17T03:17:49.623Z,82.90
2017-09-17T03:20:18.684Z,82.78
2017-09-17T03:22:48.055Z,82.26
2017-09-17T03:25:17.066Z,82.37
2017-09-17T03:27:46.888Z,82.59
2017-09-17T03:30:15.956Z,82.44
2017-09-17T03:32:45.376Z,82.35
2017-09-17T03:35:15.209Z,82.20
2017-09-17T03:37:44.281Z,82.06
2017-09-17T03:40:13.330Z,82.08
2017-09-17T03:42:42.378Z,82.24
2017-09-17T03:45:12.193Z,82.92
2017-09-17T03:47:42.013Z,82.74
2017-09-17T03:50:11.048Z,82.43
2017-09-17T03:52:40.096Z,82.10
2017-09-17T03:55:09.915Z,81.76
2017-09-17T03:57:39.709Z,81.94
2017-09-17T04:00:09.590Z,81.84
2017-09-17T04:02:38.636Z,82.12
2017-09-17T04:05:07.702Z,82.01
2017-09-17T04:07:36.745Z,82.27
2017-09-17T04:10:05.780Z,82.22
2017-09-17T04:12:34.860Z,82.22
2017-09-17T04:15:03.884Z,82.10
2017-09-17T04:17:34.448Z,81.94
2017-09-17T04:20:04.267Z,81.79
2017-09-17T04:22:33.713Z,82.11
2017-09-17T04:25:03.576Z,82.37
2017-09-17T04:27:32.951Z,82.27
2017-09-17T04:30:02.253Z,82.10
2017-09-17T04:32:32.085Z,82.08
2017-09-17T04:35:01.154Z,81.92
2017-09-17T04:37:30.188Z,81.83
2017-09-17T04:39:59.253Z,82.02
2017-09-17T04:42:28.291Z,82.04
2017-09-17T04:44:57.331Z,82.16
2017-09-17T04:47:26.404Z,82.12
2017-09-17T04:49:55.477Z,82.28
2017-09-17T04:52:24.523Z,82.75
2017-09-17T04:54:53.592Z,82.82
2017-09-17T04:57:22.713Z,82.75
2017-09-17T04:59:51.791Z,83.11
2017-09-17T05:02:20.823Z,82.92
2017-09-17T05:04:49.900Z,82.73
2017-09-17T05:07:19.689Z,82.89
2017-09-17T05:09:49.541Z,82.96
2017-09-17T05:12:19.351Z,82.99
2017-09-17T05:14:49.268Z,82.80
2017-09-17T05:17:19.088Z,82.44
2017-09-17T05:19:48.132Z,82.58
2017-09-17T05:22:17.179Z,82.71
2017-09-17T05:24:46.258Z,82.36
2017-09-17T05:27:16.086Z,82.76
2017-09-17T05:29:45.908Z,82.62
2017-09-17T05:32:14.932Z,82.64
2017-09-17T05:34:44.001Z,82.45
2017-09-17T05:37:13.162Z,82.50
2017-09-17T05:39:42.485Z,82.68
2017-09-17T05:42:11.494Z,82.66
2017-09-17T05:44:40.537Z,82.78
2017-09-17T05:47:09.595Z,83.09
2017-09-17T05:49:38.645Z,83.16
2017-09-17T05:52:08.450Z,83.15
2017-09-17T05:54:38.276Z,82.78
2017-09-17T05:57:08.078Z,82.63
2017-09-17T05:59:37.932Z,82.46
2017-09-17T06:02:06.960Z,82.21
2017-09-17T06:04:36.005Z,81.82
2017-09-17T06:07:05.087Z,81.92
2017-09-17T06:09:34.341Z,81.67
2017-09-17T06:12:03.415Z,81.78
2017-09-17T06:14:32.577Z,81.96
2017-09-17T06:17:02.456Z,81.39
2017-09-17T06:19:31.511Z,81.80
2017-09-17T06:22:00.575Z,81.81
2017-09-17T06:24:30.449Z,81.85
2017-09-17T06:26:59.492Z,81.73
2017-09-17T06:29:29.308Z,81.53
2017-09-17T06:31:59.231Z,81.31
2017-09-17T06:34:29.080Z,81.25
2017-09-17T06:36:58.255Z,81.24
2017-09-17T06:39:29.475Z,81.26
2017-09-17T06:41:59.618Z,81.18
2017-09-17T06:44:28.661Z,81.31
2017-09-17T06:46:57.708Z,81.33
2017-09-17T06:49:26.775Z,80.85
2017-09-17T06:51:56.605Z,80.42
2017-09-17T06:54:25.677Z,80.98
2017-09-17T06:56:54.721Z,80.43
2017-09-17T06:59:23.772Z,80.61
2017-09-17T07:01:53.625Z,80.54
2017-09-17T07:04:22.676Z,80.59
2017-09-17T07:06:52.517Z,79.95
2017-09-17T07:09:21.627Z,79.78
2017-09-17T07:11:50.659Z,79.52
2017-09-17T07:14:19.715Z,79.32
2017-09-17T07:16:48.805Z,79.23
2017-09-17T07:19:17.845Z,79.06
2017-09-17T07:21:46.922Z,79.07
2017-09-17T07:24:15.987Z,78.97
2017-09-17T07:26:45.024Z,78.75
2017-09-17T07:29:14.131Z,78.76
2017-09-17T07:31:43.185Z,78.61
2017-09-17T07:34:12.267Z,78.32
2017-09-17T07:36:41.760Z,78.15
2017-09-17T07:39:10.833Z,78.40
2017-09-17T07:41:39.892Z,77.50
2017-09-17T07:44:08.993Z,77.12
2017-09-17T07:46:38.797Z,77.37
2017-09-17T07:49:07.888Z,77.01
2017-09-17T07:51:37.300Z,76.92
2017-09-17T07:54:07.384Z,76.72
2017-09-17T07:56:36.469Z,76.13
2017-09-17T07:59:06.322Z,76.80
2017-09-17T08:01:35.364Z,75.81
2017-09-17T08:04:05.440Z,75.32
2017-09-17T08:06:39.159Z,74.77
2017-09-17T08:09:08.220Z,74.57
2017-09-17T08:11:37.294Z,74.91
2017-09-17T08:14:07.124Z,74.69
2017-09-17T08:16:36.163Z,74.31
2017-09-17T08:19:05.260Z,74.24
2017-09-17T08:21:34.330Z,73.96
2017-09-17T08:24:03.392Z,73.88
2017-09-17T08:26:32.780Z,74.45
2017-09-17T08:29:01.845Z,74.11
2017-09-17T08:31:30.908Z,74.22
2017-09-17T08:34:00.025Z,73.87
2017-09-17T08:36:29.124Z,73.83
2017-09-17T08:38:58.187Z,73.44
2017-09-17T08:41:27.265Z,72.29
2017-09-17T08:43:56.386Z,73.02
2017-09-17T08:46:25.445Z,72.15
2017-09-17T08:48:54.529Z,71.95
2017-09-17T08:51:24.361Z,71.73
2017-09-17T08:53:53.425Z,71.44
2017-09-17T08:56:22.495Z,71.48
2017-09-17T08:58:51.525Z,71.39
2017-09-17T09:01:21.504Z,70.81
2017-09-17T09:03:50.595Z,70.82
2017-09-17T09:06:19.642Z,70.89
2017-09-17T09:08:49.486Z,71.16
2017-09-17T09:11:18.573Z,71.49
2017-09-17T09:13:48.436Z,70.99
2017-09-17T09:16:17.529Z,70.29
2017-09-17T09:18:46.639Z,69.39
2017-09-17T09:21:17.193Z,70.21
2017-09-17T09:23:47.049Z,70.48
2017-09-17T09:26:16.105Z,70.64
2017-09-17T09:28:45.182Z,70.14
2017-09-17T09:31:14.228Z,70.22
2017-09-17T09:33:43.291Z,71.12
2017-09-17T09:36:12.416Z,70.42
2017-09-17T09:38:41.466Z,70.45
2017-09-17T09:41:11.276Z,70.58
2017-09-17T09:43:41.142Z,70.58
2017-09-17T09:46:10.209Z,70.99
2017-09-17T09:48:39.294Z,70.70
2017-09-17T09:51:08.470Z,70.55
2017-09-17T09:53:37.525Z,69.83
2017-09-17T09:56:06.581Z,68.95
2017-09-17T09:58:36.409Z,67.11
2017-09-17T10:01:05.485Z,66.03
2017-09-17T10:03:35.298Z,66.59
2017-09-17T10:06:05.161Z,65.79
2017-09-17T10:08:34.232Z,64.06
2017-09-17T10:11:03.277Z,64.11
2017-09-17T10:13:32.404Z,63.48
2017-09-17T10:16:02.224Z,63.32
2017-09-17T10:18:31.292Z,62.62
2017-09-17T10:21:01.138Z,62.55
2017-09-17T10:23:30.206Z,63.26
2017-09-17T10:26:00.023Z,60.93
2017-09-17T10:28:30.029Z,60.13
2017-09-17T10:30:59.091Z,59.05
2017-09-17T10:33:28.191Z,57.75
2017-09-17T10:35:57.251Z,59.35
2017-09-17T10:38:26.356Z,60.89
2017-09-17T10:40:55.396Z,61.22
2017-09-17T10:43:24.490Z,60.22
2017-09-17T10:45:53.569Z,61.06
2017-09-17T10:48:22.665Z,61.07
2017-09-17T10:50:51.851Z,62.09
2017-09-17T10:53:20.884Z,62.25
2017-09-17T10:55:50.701Z,62.02
2017-09-17T10:58:20.525Z,61.28
2017-09-17T11:00:50.368Z,60.85
2017-09-17T11:03:19.431Z,60.20
2017-09-17T11:05:49.244Z,56.56
2017-09-17T11:08:19.093Z,57.02
2017-09-17T11:10:49.940Z,58.65
2017-09-17T11:13:19.014Z,57.13
2017-09-17T11:15:48.125Z,58.43
2017-09-17T11:18:17.166Z,58.12
2017-09-17T11:20:46.256Z,57.15
2017-09-17T11:23:15.334Z,57.22
2017-09-17T11:25:44.407Z,59.15
2017-09-17T11:28:13.484Z,57.60
2017-09-17T11:30:43.302Z,58.71
2017-09-17T11:33:12.360Z,59.16
2017-09-17T11:35:42.328Z,58.45
2017-09-17T11:38:11.389Z,60.34
2017-09-17T11:40:40.439Z,57.28
2017-09-17T11:43:09.506Z,58.22
2017-09-17T11:45:38.592Z,58.04
2017-09-17T11:48:07.679Z,59.34
2017-09-17T11:50:36.722Z,58.69
2017-09-17T11:53:07.280Z,56.82
2017-09-17T11:55:37.125Z,57.80
2017-09-17T11:58:06.185Z,58.47
2017-09-17T12:00:36.011Z,58.18
2017-09-17T12:03:05.885Z,57.08
2017-09-17T12:05:34.953Z,57.98
2017-09-17T12:08:04.047Z,56.34
2017-09-17T12:10:33.112Z,56.63
2017-09-17T12:13:02.245Z,57.95
2017-09-17T12:15:31.331Z,60.12
2017-09-17T12:18:00.355Z,59.78
2017-09-17T12:20:29.400Z,60.69
2017-09-17T12:22:58.494Z,60.41
2017-09-17T12:25:27.575Z,60.72
2017-09-17T12:27:56.645Z,61.08
2017-09-17T12:30:25.708Z,61.51
2017-09-17T12:32:54.785Z,61.47
2017-09-17T12:35:23.860Z,61.63
2017-09-17T12:37:52.884Z,62.42
2017-09-17T12:40:21.920Z,61.68
2017-09-17T12:42:51.025Z,61.56
2017-09-17T12:45:20.093Z,62.52
2017-09-17T12:47:49.145Z,62.51
2017-09-17T12:50:18.317Z,63.33
2017-09-17T12:52:47.390Z,64.14
2017-09-17T12:55:16.460Z,64.41
2017-09-17T12:57:45.527Z,64.13
2017-09-17T13:00:14.721Z,65.29
2017-09-17T13:02:43.773Z,65.22
2017-09-17T13:05:12.896Z,63.66
2017-09-17T13:07:41.946Z,64.93
2017-09-17T13:10:10.992Z,62.12
2017-09-17T13:12:40.827Z,63.68
2017-09-17T13:15:09.880Z,63.20
2017-09-17T13:17:38.943Z,62.14
2017-09-17T13:20:08.010Z,62.07
2017-09-17T13:22:37.175Z,61.90
2017-09-17T13:25:06.260Z,59.32
2017-09-17T13:27:35.656Z,59.80
2017-09-17T13:30:04.716Z,60.65
2017-09-17T13:32:33.776Z,61.27
2017-09-17T13:35:02.823Z,61.88
2017-09-17T13:37:31.902Z,61.52
2017-09-17T13:40:01.012Z,61.72
2017-09-17T13:42:30.360Z,62.54
2017-09-17T13:44:59.449Z,61.75
2017-09-17T13:47:28.534Z,61.58
2017-09-17T13:49:57.559Z,60.88
2017-09-17T13:52:27.454Z,60.68
2017-09-17T13:54:56.548Z,60.96
2017-09-17T13:57:27.144Z,61.08
2017-09-17T13:59:57.029Z,62.18
2017-09-17T14:05:34.631Z,62.54
2017-09-17T14:08:09.980Z,63.16
2017-09-17T14:10:41.417Z,63.06
2017-09-17T14:13:11.217Z,62.03
2017-09-17T14:15:41.048Z,63.49
2017-09-17T14:18:10.134Z,62.27
2017-09-17T14:20:39.964Z,63.32
2017-09-17T14:23:09.817Z,63.77
2017-09-17T14:25:38.878Z,63.73
2017-09-17T14:28:07.953Z,63.20
2017-09-17T14:30:37.810Z,63.25
2017-09-17T14:33:06.861Z,62.82
2017-09-17T14:35:36.675Z,62.77
2017-09-17T14:38:06.532Z,63.71
2017-09-17T14:40:35.761Z,62.82
2017-09-17T14:43:05.617Z,62.86
2017-09-17T14:45:34.709Z,62.67
2017-09-17T14:48:03.901Z,62.67
2017-09-17T14:50:32.957Z,62.30
2017-09-17T14:53:02.046Z,61.73
2017-09-17T14:55:31.115Z,61.00
2017-09-17T14:58:00.166Z,60.01
2017-09-17T15:00:29.988Z,61.31
2017-09-17T15:02:59.826Z,60.73
2017-09-17T15:05:28.876Z,60.85
2017-09-17T15:07:57.951Z,59.25
2017-09-17T15:10:27.027Z,59.31
2017-09-17T15:12:56.225Z,60.22
2017-09-17T15:15:25.265Z,60.67
2017-09-17T15:17:55.087Z,60.81
2017-09-17T15:20:24.920Z,60.92
2017-09-17T15:22:53.985Z,61.38
2017-09-17T15:25:23.826Z,61.79
2017-09-17T15:27:53.623Z,62.17
2017-09-17T15:30:23.492Z,62.49
2017-09-17T15:32:53.511Z,62.54
2017-09-17T15:35:22.593Z,63.40
2017-09-17T15:37:52.619Z,62.62
2017-09-17T15:40:21.713Z,60.91
2017-09-17T15:42:52.381Z,62.42
2017-09-17T15:45:21.674Z,62.33
2017-09-17T15:47:51.882Z,63.04
2017-09-17T15:50:20.913Z,63.31
2017-09-17T15:52:50.760Z,63.35
2017-09-17T15:55:19.845Z,62.89
2017-09-17T15:57:49.684Z,63.63
2017-09-17T16:00:18.779Z,62.52
2017-09-17T16:02:47.858Z,63.02
2017-09-17T16:05:17.341Z,62.82
2017-09-17T16:07:46.389Z,62.78
2017-09-17T16:10:15.472Z,63.37
2017-09-17T16:12:44.545Z,64.05
2017-09-17T16:15:13.675Z,64.25
2017-09-17T16:17:42.792Z,64.33
2017-09-17T16:20:12.668Z,65.40
2017-09-17T16:22:42.405Z,65.71
2017-09-17T16:25:12.954Z,66.92
2017-09-17T16:27:42.075Z,66.61
2017-09-17T16:30:11.960Z,67.03
2017-09-17T16:32:40.994Z,67.29
2017-09-17T16:35:10.356Z,66.55
2017-09-17T16:37:39.424Z,66.48
2017-09-17T16:40:08.520Z,67.16
2017-09-17T16:42:37.570Z,67.98
2017-09-17T16:45:06.696Z,68.49
2017-09-17T16:47:35.762Z,68.48
2017-09-17T16:50:04.877Z,69.20
2017-09-17T16:52:33.991Z,68.07
2017-09-17T16:55:03.069Z,69.02
2017-09-17T16:57:32.124Z,70.19
2017-09-17T17:00:01.983Z,70.69
2017-09-17T17:02:31.063Z,69.44
2017-09-17T17:05:00.863Z,71.17
2017-09-17T17:07:31.020Z,70.73
2017-09-17T17:10:00.095Z,73.19
2017-09-17T17:12:29.203Z,71.77
2017-09-17T17:14:58.553Z,71.06
2017-09-17T17:17:27.643Z,71.34
2017-09-17T17:19:56.736Z,70.68
2017-09-17T17:22:25.834Z,72.19
2017-09-17T17:24:54.942Z,71.73
2017-09-17T17:27:24.014Z,74.73
2017-09-17T17:29:53.080Z,76.24
2017-09-17T17:32:22.263Z,75.80
2017-09-17T17:34:51.346Z,73.81
2017-09-17T17:37:20.402Z,76.08
2017-09-17T17:39:49.451Z,76.19
2017-09-17T17:42:18.513Z,74.89
2017-09-17T17:44:48.338Z,75.78
2017-09-17T17:47:18.194Z,77.43
2017-09-17T17:49:47.244Z,76.93
2017-09-17T17:52:16.295Z,77.01
2017-09-17T17:54:45.383Z,76.90
2017-09-17T17:57:14.411Z,77.92
2017-09-17T17:59:44.235Z,78.13
2017-09-17T18:02:14.114Z,77.48
2017-09-17T18:04:43.193Z,76.72
2017-09-17T18:07:12.223Z,75.39
2017-09-17T18:09:42.072Z,76.15
2017-09-17T18:12:11.336Z,77.69
2017-09-17T18:14:40.431Z,78.07
2017-09-17T18:17:09.477Z,78.66
2017-09-17T18:19:38.563Z,79.16
2017-09-17T18:22:07.618Z,78.32
2017-09-17T18:24:37.466Z,77.67
2017-09-17T18:27:06.584Z,80.45
2017-09-17T18:29:35.687Z,81.59
2017-09-17T18:32:05.840Z,80.95
2017-09-17T18:34:35.674Z,80.30
2017-09-17T18:37:04.730Z,78.78
2017-09-17T18:39:33.785Z,79.30
2017-09-17T18:42:02.894Z,78.75
2017-09-17T18:44:31.981Z,79.71
2017-09-17T18:47:01.154Z,80.68
2017-09-17T18:49:30.972Z,81.60
2017-09-17T18:52:00.053Z,82.18
2017-09-17T18:54:29.906Z,81.05
2017-09-17T18:56:58.986Z,81.28
2017-09-17T18:59:28.035Z,80.84
2017-09-17T19:01:57.083Z,80.19
2017-09-17T19:04:26.170Z,80.43
2017-09-17T19:06:55.459Z,81.20
2017-09-17T19:09:24.804Z,81.16
2017-09-17T19:11:53.866Z,80.80
2017-09-17T19:14:22.957Z,81.35
2017-09-17T19:16:52.809Z,82.03
2017-09-17T19:19:21.937Z,82.30
2017-09-17T19:21:51.031Z,83.04
2017-09-17T19:24:23.186Z,83.42
2017-09-17T19:26:52.330Z,81.97
2017-09-17T19:29:22.210Z,80.57
2017-09-17T19:31:51.315Z,81.79
2017-09-17T19:34:21.170Z,82.45
2017-09-17T19:36:50.419Z,83.22
2017-09-17T19:39:19.475Z,81.80
2017-09-17T19:41:48.534Z,81.67
2017-09-17T19:44:18.372Z,81.47
2017-09-17T19:46:47.431Z,81.28
2017-09-17T19:49:17.503Z,80.24
2017-09-17T19:51:46.586Z,79.87
2017-09-17T19:54:15.673Z,80.65
2017-09-17T19:56:44.778Z,81.93
2017-09-17T19:59:13.907Z,82.35
2017-09-17T20:01:42.958Z,81.66
2017-09-17T20:04:12.064Z,82.19
2017-09-17T20:06:41.184Z,82.50
2017-09-17T20:09:10.253Z,82.27
2017-09-17T20:11:39.356Z,82.68
2017-09-17T20:14:08.432Z,82.46
2017-09-17T20:16:37.581Z,83.30
2017-09-17T20:19:06.679Z,83.55
2017-09-17T20:21:35.744Z,83.94
2017-09-17T20:24:04.840Z,83.77
2017-09-17T20:26:33.895Z,83.64
2017-09-17T20:29:03.756Z,83.46
2017-09-17T20:31:32.844Z,83.38
2017-09-17T20:34:01.930Z,82.70
2017-09-17T20:36:31.050Z,83.58
2017-09-17T20:39:00.074Z,83.97
2017-09-17T20:41:29.952Z,83.46
2017-09-17T20:43:59.011Z,83.92
2017-09-17T20:46:28.096Z,83.25
2017-09-17T20:48:57.178Z,83.47
2017-09-17T20:51:27.040Z,82.78
2017-09-17T20:53:56.087Z,83.20
2017-09-17T20:56:25.905Z,83.44
2017-09-17T20:58:54.972Z,83.31
2017-09-17T21:01:24.034Z,83.53
2017-09-17T21:03:53.105Z,83.64
2017-09-17T21:06:22.173Z,83.82
2017-09-17T21:08:51.989Z,83.70
2017-09-17T21:11:21.824Z,83.42
2017-09-17T21:13:51.654Z,83.45
2017-09-17T21:16:20.716Z,83.49
2017-09-17T21:18:49.788Z,83.83
2017-09-17T21:21:18.885Z,83.68
2017-09-17T21:23:47.945Z,84.18
2017-09-17T21:26:17.012Z,84.46
2017-09-17T21:28:46.842Z,84.22
2017-09-17T21:31:15.901Z,84.08
2017-09-17T21:33:45.776Z,83.64
2017-09-17T21:36:14.827Z,84.26
2017-09-17T21:38:43.860Z,84.17
2017-09-17T21:41:12.965Z,84.32
2017-09-17T21:43:42.094Z,84.29
2017-09-17T21:46:11.968Z,84.49
2017-09-17T21:48:41.040Z,84.71
2017-09-17T21:51:10.106Z,84.68
2017-09-17T21:53:39.946Z,84.90
2017-09-17T21:56:08.980Z,85.04
2017-09-17T21:58:38.864Z,85.33
2017-09-17T22:01:08.004Z,85.52
2017-09-17T22:03:37.096Z,85.23
2017-09-17T22:06:06.219Z,85.18
2017-09-17T22:08:36.126Z,85.44
2017-09-17T22:11:05.961Z,85.71
2017-09-17T22:13:35.055Z,85.50
2017-09-17T22:16:04.121Z,85.60
2017-09-17T22:18:33.193Z,85.59
2017-09-17T22:21:02.532Z,85.51
2017-09-17T22:23:31.553Z,85.92
2017-09-17T22:26:02.304Z,85.60
2017-09-17T22:28:31.376Z,85.67
2017-09-17T22:31:00.448Z,85.87
2017-09-17T22:33:29.508Z,85.84
2017-09-17T22:35:58.570Z,86.17
2017-09-17T22:38:27.644Z,86.42
2017-09-17T22:40:56.695Z,86.47
2017-09-17T22:43:25.771Z,86.46
2017-09-17T22:45:54.828Z,86.51
2017-09-17T22:48:24.639Z,86.73
2017-09-17T22:50:53.672Z,86.87
2017-09-17T22:53:22.746Z,87.01
2017-09-17T22:55:51.825Z,87.00
2017-09-17T22:58:21.648Z,87.01
2017-09-17T23:00:50.704Z,87.08
2017-09-17T23:03:20.519Z,87.09
2017-09-17T23:05:49.581Z,87.18
2017-09-17T23:08:18.635Z,87.25
2017-09-17T23:10:48.452Z,87.04
2017-09-17T23:13:17.728Z,87.00
2017-09-17T23:15:47.571Z,87.20
2017-09-17T23:18:16.612Z,87.05
2017-09-17T23:20:45.652Z,86.93
2017-09-17T23:23:15.025Z,87.11
2017-09-17T23:25:44.080Z,87.06
2017-09-17T23:28:14.185Z,86.97
2017-09-17T23:30:43.200Z,86.95
2017-09-17T23:33:12.293Z,86.92
2017-09-17T23:35:41.365Z,86.93
2017-09-17T23:38:10.388Z,87.06
2017-09-17T23:40:39.596Z,87.11
2017-09-17T23:43:08.657Z,87.19
2017-09-17T23:45:37.734Z,87.25
2017-09-17T23:48:06.765Z,87.28
2017-09-17T23:50:36.605Z,87.27
2017-09-17T23:53:05.624Z,87.33
2017-09-17T23:55:35.461Z,87.46
2017-09-17T23:58:04.488Z,87.54
